sensor_id;sensor_type;location;lat;lon;timestamp;P1;durP1;ratioP1;P2;durP2;ratioP2
31676;SDS011;18385;51.572;6.578;2022-08-19T00:00:33;10.32;;;6.18;;
31676;SDS011;18385;51.572;6.578;2022-08-19T00:02:59;10.32;;;6.32;;
31676;SDS011;18385;51.572;6.578;2022-08-19T00:05:25;10.73;;;6.93;;
31676;SDS011;18385;51.572;6.578;2022-08-19T00:07:51;10.63;;;6.88;;
31676;SDS011;18385;51.572;6.578;2022-08-19T00:10:17;10.10;;;7.00;;
31676;SDS011;18385;51.572;6.578;2022-08-19T00:12:44;10.35;;;6.95;;
31676;SDS011;18385;51.572;6.578;2022-08-19T00:15:12;11.52;;;6.30;;
31676;SDS011;18385;51.572;6.578;2022-08-19T00:17:40;11.60;;;6.40;;
31676;SDS011;18385;51.572;6.578;2022-08-19T00:20:08;13.18;;;6.30;;
31676;SDS011;18385;51.572;6.578;2022-08-19T00:22:36;11.13;;;6.93;;
31676;SDS011;18385;51.572;6.578;2022-08-19T00:25:03;12.18;;;6.95;;
31676;SDS011;18385;51.572;6.578;2022-08-19T00:27:31;11.45;;;7.40;;
31676;SDS011;18385;51.572;6.578;2022-08-19T00:29:57;13.93;;;7.88;;
31676;SDS011;18385;51.572;6.578;2022-08-19T00:32:24;10.93;;;7.50;;
31676;SDS011;18385;51.572;6.578;2022-08-19T00:34:50;11.95;;;7.88;;
31676;SDS011;18385;51.572;6.578;2022-08-19T00:37:18;12.85;;;7.40;;
31676;SDS011;18385;51.572;6.578;2022-08-19T00:39:48;11.30;;;7.30;;
31676;SDS011;18385;51.572;6.578;2022-08-19T00:42:16;13.32;;;7.53;;
31676;SDS011;18385;51.572;6.578;2022-08-19T00:44:42;11.95;;;7.00;;
31676;SDS011;18385;51.572;6.578;2022-08-19T00:47:08;10.35;;;6.90;;
31676;SDS011;18385;51.572;6.578;2022-08-19T00:49:35;10.18;;;6.45;;
31676;SDS011;18385;51.572;6.578;2022-08-19T00:52:09;10.88;;;7.40;;
31676;SDS011;18385;51.572;6.578;2022-08-19T00:55:05;9.00;;;6.47;;
31676;SDS011;18385;51.572;6.578;2022-08-19T00:57:38;11.15;;;7.50;;
31676;SDS011;18385;51.572;6.578;2022-08-19T01:00:12;9.93;;;6.72;;
31676;SDS011;18385;51.572;6.578;2022-08-19T01:02:40;11.25;;;6.95;;
31676;SDS011;18385;51.572;6.578;2022-08-19T01:05:08;11.02;;;6.65;;
31676;SDS011;18385;51.572;6.578;2022-08-19T01:07:37;11.32;;;7.00;;
31676;SDS011;18385;51.572;6.578;2022-08-19T01:10:06;12.23;;;7.53;;
31676;SDS011;18385;51.572;6.578;2022-08-19T01:12:33;10.10;;;7.17;;
31676;SDS011;18385;51.572;6.578;2022-08-19T01:14:59;12.27;;;8.40;;
31676;SDS011;18385;51.572;6.578;2022-08-19T01:17:26;13.27;;;8.15;;
31676;SDS011;18385;51.572;6.578;2022-08-19T01:19:52;11.50;;;7.60;;
31676;SDS011;18385;51.572;6.578;2022-08-19T01:24:51;13.85;;;8.18;;
31676;SDS011;18385;51.572;6.578;2022-08-19T01:27:17;13.27;;;8.30;;
31676;SDS011;18385;51.572;6.578;2022-08-19T01:29:43;10.43;;;7.50;;
31676;SDS011;18385;51.572;6.578;2022-08-19T01:32:14;12.90;;;8.23;;
31676;SDS011;18385;51.572;6.578;2022-08-19T01:34:41;14.48;;;8.43;;
31676;SDS011;18385;51.572;6.578;2022-08-19T01:37:11;13.38;;;8.30;;
31676;SDS011;18385;51.572;6.578;2022-08-19T01:39:40;13.80;;;8.55;;
31676;SDS011;18385;51.572;6.578;2022-08-19T01:42:07;12.88;;;9.13;;
31676;SDS011;18385;51.572;6.578;2022-08-19T01:44:36;13.45;;;8.38;;
31676;SDS011;18385;51.572;6.578;2022-08-19T01:47:05;12.90;;;8.77;;
31676;SDS011;18385;51.572;6.578;2022-08-19T01:49:31;13.18;;;8.00;;
31676;SDS011;18385;51.572;6.578;2022-08-19T01:51:58;15.55;;;8.50;;
31676;SDS011;18385;51.572;6.578;2022-08-19T01:54:25;16.20;;;9.80;;
31676;SDS011;18385;51.572;6.578;2022-08-19T01:56:51;17.67;;;10.57;;
31676;SDS011;18385;51.572;6.578;2022-08-19T01:59:21;12.57;;;8.45;;
31676;SDS011;18385;51.572;6.578;2022-08-19T02:01:48;16.05;;;9.43;;
31676;SDS011;18385;51.572;6.578;2022-08-19T02:04:14;16.90;;;9.25;;
31676;SDS011;18385;51.572;6.578;2022-08-19T02:06:40;16.92;;;9.70;;
31676;SDS011;18385;51.572;6.578;2022-08-19T02:09:07;16.77;;;11.02;;
31676;SDS011;18385;51.572;6.578;2022-08-19T02:11:34;16.35;;;11.25;;
31676;SDS011;18385;51.572;6.578;2022-08-19T02:14:02;16.90;;;10.75;;
31676;SDS011;18385;51.572;6.578;2022-08-19T02:16:29;16.42;;;10.43;;
31676;SDS011;18385;51.572;6.578;2022-08-19T02:18:56;16.67;;;9.68;;
31676;SDS011;18385;51.572;6.578;2022-08-19T02:21:22;17.88;;;9.93;;
31676;SDS011;18385;51.572;6.578;2022-08-19T02:23:49;16.73;;;9.55;;
31676;SDS011;18385;51.572;6.578;2022-08-19T02:26:15;15.52;;;10.18;;
31676;SDS011;18385;51.572;6.578;2022-08-19T02:28:42;14.82;;;9.15;;
31676;SDS011;18385;51.572;6.578;2022-08-19T02:31:12;14.27;;;8.48;;
31676;SDS011;18385;51.572;6.578;2022-08-19T02:33:40;14.18;;;8.70;;
31676;SDS011;18385;51.572;6.578;2022-08-19T02:36:06;14.85;;;8.85;;
31676;SDS011;18385;51.572;6.578;2022-08-19T02:38:33;15.50;;;9.77;;
31676;SDS011;18385;51.572;6.578;2022-08-19T02:41:04;15.13;;;10.20;;
31676;SDS011;18385;51.572;6.578;2022-08-19T02:43:34;16.38;;;8.88;;
31676;SDS011;18385;51.572;6.578;2022-08-19T02:46:15;17.98;;;11.25;;
31676;SDS011;18385;51.572;6.578;2022-08-19T02:48:47;16.77;;;11.52;;
31676;SDS011;18385;51.572;6.578;2022-08-19T02:51:18;13.90;;;9.68;;
31676;SDS011;18385;51.572;6.578;2022-08-19T02:53:45;14.98;;;10.38;;
31676;SDS011;18385;51.572;6.578;2022-08-19T02:56:11;17.05;;;10.65;;
31676;SDS011;18385;51.572;6.578;2022-08-19T02:58:37;16.30;;;9.85;;
31676;SDS011;18385;51.572;6.578;2022-08-19T03:01:03;15.88;;;9.25;;
31676;SDS011;18385;51.572;6.578;2022-08-19T03:03:28;19.38;;;11.15;;
31676;SDS011;18385;51.572;6.578;2022-08-19T03:06:08;20.55;;;10.68;;
31676;SDS011;18385;51.572;6.578;2022-08-19T03:08:38;14.70;;;9.25;;
31676;SDS011;18385;51.572;6.578;2022-08-19T03:11:05;18.83;;;10.65;;
31676;SDS011;18385;51.572;6.578;2022-08-19T03:13:31;18.08;;;10.98;;
31676;SDS011;18385;51.572;6.578;2022-08-19T03:15:57;18.13;;;11.20;;
31676;SDS011;18385;51.572;6.578;2022-08-19T03:18:22;18.80;;;11.82;;
31676;SDS011;18385;51.572;6.578;2022-08-19T03:20:49;16.23;;;10.43;;
31676;SDS011;18385;51.572;6.578;2022-08-19T03:23:19;17.17;;;9.98;;
31676;SDS011;18385;51.572;6.578;2022-08-19T03:25:46;18.30;;;10.70;;
31676;SDS011;18385;51.572;6.578;2022-08-19T03:28:13;15.55;;;9.65;;
31676;SDS011;18385;51.572;6.578;2022-08-19T03:30:40;18.63;;;9.73;;
31676;SDS011;18385;51.572;6.578;2022-08-19T03:33:08;17.88;;;11.07;;
31676;SDS011;18385;51.572;6.578;2022-08-19T03:35:35;17.35;;;10.07;;
31676;SDS011;18385;51.572;6.578;2022-08-19T03:38:04;15.98;;;9.85;;
31676;SDS011;18385;51.572;6.578;2022-08-19T03:40:31;16.88;;;9.48;;
31676;SDS011;18385;51.572;6.578;2022-08-19T03:42:57;19.67;;;11.30;;
31676;SDS011;18385;51.572;6.578;2022-08-19T03:45:23;19.45;;;11.40;;
31676;SDS011;18385;51.572;6.578;2022-08-19T03:47:49;21.30;;;12.00;;
31676;SDS011;18385;51.572;6.578;2022-08-19T03:50:15;21.50;;;12.20;;
31676;SDS011;18385;51.572;6.578;2022-08-19T03:52:41;20.10;;;11.20;;
31676;SDS011;18385;51.572;6.578;2022-08-19T03:55:07;17.10;;;11.02;;
31676;SDS011;18385;51.572;6.578;2022-08-19T03:57:33;21.38;;;12.38;;
31676;SDS011;18385;51.572;6.578;2022-08-19T03:59:59;18.15;;;11.55;;
31676;SDS011;18385;51.572;6.578;2022-08-19T04:02:26;22.63;;;12.80;;
31676;SDS011;18385;51.572;6.578;2022-08-19T04:04:52;19.65;;;11.50;;
31676;SDS011;18385;51.572;6.578;2022-08-19T04:07:22;22.23;;;11.88;;
31676;SDS011;18385;51.572;6.578;2022-08-19T04:09:48;20.70;;;11.48;;
31676;SDS011;18385;51.572;6.578;2022-08-19T04:12:14;20.98;;;12.80;;
31676;SDS011;18385;51.572;6.578;2022-08-19T04:14:39;24.05;;;13.55;;
31676;SDS011;18385;51.572;6.578;2022-08-19T04:17:06;26.27;;;14.50;;
31676;SDS011;18385;51.572;6.578;2022-08-19T04:19:32;23.02;;;12.82;;
31676;SDS011;18385;51.572;6.578;2022-08-19T04:21:59;23.33;;;13.70;;
31676;SDS011;18385;51.572;6.578;2022-08-19T04:24:24;21.92;;;12.65;;
31676;SDS011;18385;51.572;6.578;2022-08-19T04:26:50;25.00;;;13.27;;
31676;SDS011;18385;51.572;6.578;2022-08-19T04:29:18;20.02;;;12.57;;
31676;SDS011;18385;51.572;6.578;2022-08-19T04:31:47;21.88;;;13.10;;
31676;SDS011;18385;51.572;6.578;2022-08-19T04:34:14;22.13;;;11.27;;
31676;SDS011;18385;51.572;6.578;2022-08-19T04:36:42;20.45;;;11.40;;
31676;SDS011;18385;51.572;6.578;2022-08-19T04:39:16;17.90;;;10.05;;
31676;SDS011;18385;51.572;6.578;2022-08-19T04:41:44;21.60;;;10.63;;
31676;SDS011;18385;51.572;6.578;2022-08-19T04:44:30;18.73;;;11.02;;
31676;SDS011;18385;51.572;6.578;2022-08-19T04:46:57;18.80;;;11.32;;
31676;SDS011;18385;51.572;6.578;2022-08-19T04:49:23;19.80;;;11.00;;
31676;SDS011;18385;51.572;6.578;2022-08-19T04:51:50;19.38;;;10.82;;
31676;SDS011;18385;51.572;6.578;2022-08-19T04:54:19;18.42;;;10.23;;
31676;SDS011;18385;51.572;6.578;2022-08-19T04:56:47;20.05;;;11.48;;
31676;SDS011;18385;51.572;6.578;2022-08-19T04:59:18;20.33;;;11.48;;
31676;SDS011;18385;51.572;6.578;2022-08-19T05:01:45;19.30;;;12.35;;
31676;SDS011;18385;51.572;6.578;2022-08-19T05:04:14;22.10;;;12.82;;
31676;SDS011;18385;51.572;6.578;2022-08-19T05:06:43;20.30;;;12.97;;
31676;SDS011;18385;51.572;6.578;2022-08-19T05:09:08;21.80;;;12.55;;
31676;SDS011;18385;51.572;6.578;2022-08-19T05:11:35;22.85;;;12.77;;
31676;SDS011;18385;51.572;6.578;2022-08-19T05:16:30;21.02;;;11.88;;
31676;SDS011;18385;51.572;6.578;2022-08-19T05:18:56;22.98;;;12.48;;
31676;SDS011;18385;51.572;6.578;2022-08-19T05:21:41;23.27;;;12.43;;
31676;SDS011;18385;51.572;6.578;2022-08-19T05:24:27;25.98;;;14.63;;
31676;SDS011;18385;51.572;6.578;2022-08-19T05:26:54;30.48;;;16.25;;
31676;SDS011;18385;51.572;6.578;2022-08-19T05:29:22;28.42;;;15.65;;
31676;SDS011;18385;51.572;6.578;2022-08-19T05:31:50;31.17;;;16.20;;
31676;SDS011;18385;51.572;6.578;2022-08-19T05:34:18;29.15;;;16.13;;
31676;SDS011;18385;51.572;6.578;2022-08-19T05:39:14;26.77;;;14.77;;
31676;SDS011;18385;51.572;6.578;2022-08-19T05:41:46;28.38;;;16.33;;
31676;SDS011;18385;51.572;6.578;2022-08-19T05:44:14;30.42;;;17.50;;
31676;SDS011;18385;51.572;6.578;2022-08-19T05:46:42;33.10;;;17.45;;
31676;SDS011;18385;51.572;6.578;2022-08-19T05:49:12;29.98;;;16.17;;
31676;SDS011;18385;51.572;6.578;2022-08-19T05:51:39;28.50;;;14.80;;
31676;SDS011;18385;51.572;6.578;2022-08-19T05:54:05;31.38;;;17.20;;
31676;SDS011;18385;51.572;6.578;2022-08-19T05:56:32;28.40;;;16.27;;
31676;SDS011;18385;51.572;6.578;2022-08-19T05:58:59;28.00;;;17.00;;
31676;SDS011;18385;51.572;6.578;2022-08-19T06:01:26;29.65;;;17.08;;
31676;SDS011;18385;51.572;6.578;2022-08-19T06:03:52;34.30;;;19.95;;
31676;SDS011;18385;51.572;6.578;2022-08-19T06:06:18;29.95;;;17.48;;
31676;SDS011;18385;51.572;6.578;2022-08-19T06:08:45;34.67;;;18.42;;
31676;SDS011;18385;51.572;6.578;2022-08-19T06:11:19;30.00;;;16.75;;
31676;SDS011;18385;51.572;6.578;2022-08-19T06:13:46;34.03;;;17.08;;
31676;SDS011;18385;51.572;6.578;2022-08-19T06:16:16;30.33;;;16.92;;
31676;SDS011;18385;51.572;6.578;2022-08-19T06:18:48;33.50;;;17.02;;
31676;SDS011;18385;51.572;6.578;2022-08-19T06:23:43;65.57;;;38.83;;
31676;SDS011;18385;51.572;6.578;2022-08-19T06:26:13;58.58;;;34.45;;
31676;SDS011;18385;51.572;6.578;2022-08-19T06:28:40;39.90;;;23.58;;
31676;SDS011;18385;51.572;6.578;2022-08-19T06:31:33;29.10;;;17.52;;
31676;SDS011;18385;51.572;6.578;2022-08-19T06:33:59;29.45;;;17.33;;
31676;SDS011;18385;51.572;6.578;2022-08-19T06:36:28;31.00;;;17.75;;
31676;SDS011;18385;51.572;6.578;2022-08-19T06:39:09;29.10;;;17.23;;
31676;SDS011;18385;51.572;6.578;2022-08-19T06:41:39;33.28;;;18.73;;
31676;SDS011;18385;51.572;6.578;2022-08-19T06:44:15;30.75;;;18.77;;
31676;SDS011;18385;51.572;6.578;2022-08-19T06:46:41;32.30;;;18.30;;
31676;SDS011;18385;51.572;6.578;2022-08-19T06:49:08;35.15;;;18.77;;
31676;SDS011;18385;51.572;6.578;2022-08-19T06:51:36;29.02;;;17.70;;
31676;SDS011;18385;51.572;6.578;2022-08-19T06:54:02;33.97;;;18.33;;
31676;SDS011;18385;51.572;6.578;2022-08-19T06:56:29;31.13;;;17.63;;
31676;SDS011;18385;51.572;6.578;2022-08-19T06:59:00;34.33;;;19.65;;
31676;SDS011;18385;51.572;6.578;2022-08-19T07:01:28;32.63;;;17.83;;
31676;SDS011;18385;51.572;6.578;2022-08-19T07:03:54;32.55;;;18.08;;
31676;SDS011;18385;51.572;6.578;2022-08-19T07:06:20;32.47;;;18.77;;
31676;SDS011;18385;51.572;6.578;2022-08-19T07:08:46;32.08;;;19.35;;
31676;SDS011;18385;51.572;6.578;2022-08-19T07:11:13;32.17;;;18.52;;
31676;SDS011;18385;51.572;6.578;2022-08-19T07:13:40;35.95;;;18.05;;
31676;SDS011;18385;51.572;6.578;2022-08-19T07:16:18;28.50;;;17.30;;
31676;SDS011;18385;51.572;6.578;2022-08-19T07:18:48;29.35;;;16.70;;
31676;SDS011;18385;51.572;6.578;2022-08-19T07:21:20;35.72;;;16.67;;
31676;SDS011;18385;51.572;6.578;2022-08-19T07:23:48;32.88;;;16.80;;
31676;SDS011;18385;51.572;6.578;2022-08-19T07:26:16;29.83;;;16.65;;
31676;SDS011;18385;51.572;6.578;2022-08-19T07:28:47;29.50;;;17.10;;
31676;SDS011;18385;51.572;6.578;2022-08-19T07:31:15;25.63;;;14.20;;
31676;SDS011;18385;51.572;6.578;2022-08-19T07:33:46;27.40;;;14.63;;
31676;SDS011;18385;51.572;6.578;2022-08-19T07:36:14;23.38;;;13.38;;
31676;SDS011;18385;51.572;6.578;2022-08-19T07:38:44;26.13;;;14.63;;
31676;SDS011;18385;51.572;6.578;2022-08-19T07:41:16;23.08;;;13.80;;
31676;SDS011;18385;51.572;6.578;2022-08-19T07:43:44;29.13;;;14.98;;
31676;SDS011;18385;51.572;6.578;2022-08-19T07:46:11;37.35;;;15.18;;
31676;SDS011;18385;51.572;6.578;2022-08-19T07:48:38;28.13;;;14.65;;
31676;SDS011;18385;51.572;6.578;2022-08-19T07:51:06;30.25;;;16.10;;
31676;SDS011;18385;51.572;6.578;2022-08-19T07:53:33;27.33;;;14.38;;
31676;SDS011;18385;51.572;6.578;2022-08-19T07:55:59;27.92;;;16.30;;
31676;SDS011;18385;51.572;6.578;2022-08-19T07:58:29;31.08;;;15.25;;
31676;SDS011;18385;51.572;6.578;2022-08-19T08:00:59;29.08;;;15.55;;
31676;SDS011;18385;51.572;6.578;2022-08-19T08:03:25;30.15;;;15.27;;
31676;SDS011;18385;51.572;6.578;2022-08-19T08:06:11;29.30;;;15.77;;
31676;SDS011;18385;51.572;6.578;2022-08-19T08:08:58;30.55;;;16.10;;
31676;SDS011;18385;51.572;6.578;2022-08-19T08:11:36;31.23;;;16.30;;
31676;SDS011;18385;51.572;6.578;2022-08-19T08:14:24;29.83;;;16.05;;
31676;SDS011;18385;51.572;6.578;2022-08-19T08:16:56;34.60;;;19.05;;
31676;SDS011;18385;51.572;6.578;2022-08-19T08:19:23;34.08;;;16.77;;
31676;SDS011;18385;51.572;6.578;2022-08-19T08:21:50;33.10;;;16.40;;
31676;SDS011;18385;51.572;6.578;2022-08-19T08:24:17;33.95;;;17.35;;
31676;SDS011;18385;51.572;6.578;2022-08-19T08:26:43;31.58;;;16.25;;
31676;SDS011;18385;51.572;6.578;2022-08-19T08:29:10;32.03;;;16.27;;
31676;SDS011;18385;51.572;6.578;2022-08-19T08:31:37;26.33;;;14.93;;
31676;SDS011;18385;51.572;6.578;2022-08-19T08:34:03;33.30;;;17.45;;
31676;SDS011;18385;51.572;6.578;2022-08-19T08:36:29;34.47;;;17.65;;
31676;SDS011;18385;51.572;6.578;2022-08-19T08:44:00;30.70;;;14.95;;
31676;SDS011;18385;51.572;6.578;2022-08-19T08:46:37;34.15;;;17.60;;
31676;SDS011;18385;51.572;6.578;2022-08-19T08:54:35;19.17;;;11.47;;
31676;SDS011;18385;51.572;6.578;2022-08-19T08:57:15;27.98;;;15.73;;
31676;SDS011;18385;51.572;6.578;2022-08-19T08:59:48;27.30;;;13.63;;
31676;SDS011;18385;51.572;6.578;2022-08-19T09:02:16;29.08;;;13.32;;
31676;SDS011;18385;51.572;6.578;2022-08-19T09:04:43;21.30;;;12.13;;
31676;SDS011;18385;51.572;6.578;2022-08-19T09:09:54;22.60;;;12.15;;
31676;SDS011;18385;51.572;6.578;2022-08-19T09:12:52;19.25;;;10.90;;
31676;SDS011;18385;51.572;6.578;2022-08-19T09:15:28;19.90;;;11.60;;
31676;SDS011;18385;51.572;6.578;2022-08-19T09:18:01;22.33;;;11.85;;
31676;SDS011;18385;51.572;6.578;2022-08-19T09:20:29;23.42;;;12.25;;
31676;SDS011;18385;51.572;6.578;2022-08-19T09:22:56;17.13;;;10.73;;
31676;SDS011;18385;51.572;6.578;2022-08-19T09:25:23;26.23;;;12.75;;
31676;SDS011;18385;51.572;6.578;2022-08-19T09:27:49;23.30;;;13.57;;
31676;SDS011;18385;51.572;6.578;2022-08-19T09:30:25;21.90;;;11.05;;
31676;SDS011;18385;51.572;6.578;2022-08-19T09:32:53;25.33;;;13.40;;
31676;SDS011;18385;51.572;6.578;2022-08-19T09:35:20;22.50;;;12.18;;
31676;SDS011;18385;51.572;6.578;2022-08-19T09:37:47;26.65;;;14.77;;
31676;SDS011;18385;51.572;6.578;2022-08-19T09:40:14;26.90;;;14.05;;
31676;SDS011;18385;51.572;6.578;2022-08-19T09:42:41;27.02;;;13.93;;
31676;SDS011;18385;51.572;6.578;2022-08-19T09:45:08;25.67;;;13.40;;
31676;SDS011;18385;51.572;6.578;2022-08-19T09:47:35;26.90;;;12.80;;
31676;SDS011;18385;51.572;6.578;2022-08-19T09:50:04;26.73;;;14.45;;
31676;SDS011;18385;51.572;6.578;2022-08-19T09:52:33;24.10;;;13.07;;
31676;SDS011;18385;51.572;6.578;2022-08-19T09:55:06;26.15;;;13.93;;
31676;SDS011;18385;51.572;6.578;2022-08-19T09:57:34;21.38;;;11.93;;
31676;SDS011;18385;51.572;6.578;2022-08-19T10:00:00;26.15;;;13.07;;
31676;SDS011;18385;51.572;6.578;2022-08-19T10:02:26;22.23;;;12.07;;
31676;SDS011;18385;51.572;6.578;2022-08-19T10:04:51;23.63;;;12.32;;
31676;SDS011;18385;51.572;6.578;2022-08-19T10:07:36;23.77;;;13.60;;
31676;SDS011;18385;51.572;6.578;2022-08-19T10:10:06;26.10;;;13.30;;
31676;SDS011;18385;51.572;6.578;2022-08-19T10:12:33;24.15;;;13.23;;
31676;SDS011;18385;51.572;6.578;2022-08-19T10:14:59;25.45;;;12.75;;
31676;SDS011;18385;51.572;6.578;2022-08-19T10:17:26;22.63;;;12.43;;
31676;SDS011;18385;51.572;6.578;2022-08-19T10:19:52;19.83;;;12.60;;
31676;SDS011;18385;51.572;6.578;2022-08-19T10:22:18;25.77;;;12.70;;
31676;SDS011;18385;51.572;6.578;2022-08-19T10:24:47;21.20;;;12.18;;
31676;SDS011;18385;51.572;6.578;2022-08-19T10:27:14;24.83;;;12.65;;
31676;SDS011;18385;51.572;6.578;2022-08-19T10:29:41;17.73;;;9.75;;
31676;SDS011;18385;51.572;6.578;2022-08-19T10:32:08;16.52;;;9.85;;
31676;SDS011;18385;51.572;6.578;2022-08-19T10:34:36;18.65;;;10.77;;
31676;SDS011;18385;51.572;6.578;2022-08-19T10:37:03;19.15;;;10.65;;
31676;SDS011;18385;51.572;6.578;2022-08-19T10:39:33;17.08;;;10.20;;
31676;SDS011;18385;51.572;6.578;2022-08-19T10:42:04;17.03;;;9.90;;
31676;SDS011;18385;51.572;6.578;2022-08-19T10:44:31;15.90;;;9.38;;
31676;SDS011;18385;51.572;6.578;2022-08-19T10:46:57;16.88;;;8.18;;
31676;SDS011;18385;51.572;6.578;2022-08-19T10:49:23;16.45;;;8.52;;
31676;SDS011;18385;51.572;6.578;2022-08-19T10:51:49;17.20;;;9.57;;
31676;SDS011;18385;51.572;6.578;2022-08-19T10:54:33;14.38;;;8.15;;
31676;SDS011;18385;51.572;6.578;2022-08-19T10:57:18;15.77;;;8.27;;
31676;SDS011;18385;51.572;6.578;2022-08-19T10:59:43;18.17;;;9.07;;
31676;SDS011;18385;51.572;6.578;2022-08-19T11:02:10;14.50;;;8.50;;
31676;SDS011;18385;51.572;6.578;2022-08-19T11:04:37;11.70;;;7.38;;
31676;SDS011;18385;51.572;6.578;2022-08-19T11:07:03;12.57;;;7.68;;
31676;SDS011;18385;51.572;6.578;2022-08-19T11:09:30;14.18;;;6.95;;
31676;SDS011;18385;51.572;6.578;2022-08-19T11:11:57;11.30;;;7.00;;
31676;SDS011;18385;51.572;6.578;2022-08-19T11:14:23;10.27;;;5.05;;
31676;SDS011;18385;51.572;6.578;2022-08-19T11:16:50;12.85;;;6.68;;
31676;SDS011;18385;51.572;6.578;2022-08-19T11:19:18;9.38;;;5.07;;
31676;SDS011;18385;51.572;6.578;2022-08-19T11:21:45;7.70;;;4.90;;
31676;SDS011;18385;51.572;6.578;2022-08-19T11:24:14;7.00;;;3.88;;
31676;SDS011;18385;51.572;6.578;2022-08-19T11:26:45;4.65;;;3.38;;
31676;SDS011;18385;51.572;6.578;2022-08-19T11:29:13;6.40;;;4.15;;
31676;SDS011;18385;51.572;6.578;2022-08-19T11:31:41;7.60;;;4.63;;
31676;SDS011;18385;51.572;6.578;2022-08-19T11:36:37;10.00;;;5.15;;
31676;SDS011;18385;51.572;6.578;2022-08-19T11:39:06;8.77;;;4.57;;
31676;SDS011;18385;51.572;6.578;2022-08-19T11:41:33;11.30;;;5.25;;
31676;SDS011;18385;51.572;6.578;2022-08-19T11:43:59;8.38;;;5.20;;
31676;SDS011;18385;51.572;6.578;2022-08-19T11:46:26;8.23;;;5.18;;
31676;SDS011;18385;51.572;6.578;2022-08-19T11:48:58;7.40;;;4.85;;
31676;SDS011;18385;51.572;6.578;2022-08-19T11:51:26;8.30;;;3.78;;
31676;SDS011;18385;51.572;6.578;2022-08-19T11:53:53;5.00;;;3.55;;
31676;SDS011;18385;51.572;6.578;2022-08-19T11:56:21;6.80;;;3.97;;
31676;SDS011;18385;51.572;6.578;2022-08-19T11:58:47;7.82;;;3.80;;
31676;SDS011;18385;51.572;6.578;2022-08-19T12:01:14;8.05;;;4.40;;
31676;SDS011;18385;51.572;6.578;2022-08-19T12:03:42;5.97;;;4.00;;
31676;SDS011;18385;51.572;6.578;2022-08-19T12:06:17;5.05;;;3.45;;
31676;SDS011;18385;51.572;6.578;2022-08-19T12:11:14;8.15;;;4.05;;
31676;SDS011;18385;51.572;6.578;2022-08-19T12:13:41;7.82;;;3.95;;
31676;SDS011;18385;51.572;6.578;2022-08-19T12:18:41;5.30;;;3.60;;
31676;SDS011;18385;51.572;6.578;2022-08-19T12:21:10;6.10;;;3.53;;
31676;SDS011;18385;51.572;6.578;2022-08-19T12:23:38;6.60;;;3.85;;
31676;SDS011;18385;51.572;6.578;2022-08-19T12:26:04;6.50;;;4.13;;
31676;SDS011;18385;51.572;6.578;2022-08-19T12:28:30;7.95;;;3.97;;
31676;SDS011;18385;51.572;6.578;2022-08-19T12:30:56;5.22;;;3.30;;
31676;SDS011;18385;51.572;6.578;2022-08-19T12:33:22;5.13;;;3.28;;
31676;SDS011;18385;51.572;6.578;2022-08-19T12:35:51;6.25;;;3.72;;
31676;SDS011;18385;51.572;6.578;2022-08-19T12:38:17;7.53;;;4.95;;
31676;SDS011;18385;51.572;6.578;2022-08-19T12:40:47;7.57;;;4.72;;
31676;SDS011;18385;51.572;6.578;2022-08-19T12:43:14;7.53;;;4.95;;
31676;SDS011;18385;51.572;6.578;2022-08-19T12:45:44;7.82;;;5.55;;
31676;SDS011;18385;51.572;6.578;2022-08-19T12:48:10;9.02;;;5.22;;
31676;SDS011;18385;51.572;6.578;2022-08-19T12:50:38;7.10;;;4.20;;
31676;SDS011;18385;51.572;6.578;2022-08-19T12:53:05;7.55;;;4.65;;
31676;SDS011;18385;51.572;6.578;2022-08-19T12:55:30;8.88;;;5.40;;
31676;SDS011;18385;51.572;6.578;2022-08-19T12:57:56;9.60;;;6.22;;
31676;SDS011;18385;51.572;6.578;2022-08-19T13:00:22;8.10;;;4.88;;
31676;SDS011;18385;51.572;6.578;2022-08-19T13:02:49;9.98;;;5.07;;
31676;SDS011;18385;51.572;6.578;2022-08-19T13:05:21;10.70;;;6.72;;
31676;SDS011;18385;51.572;6.578;2022-08-19T13:07:50;11.98;;;8.27;;
31676;SDS011;18385;51.572;6.578;2022-08-19T13:10:20;9.48;;;6.68;;
31676;SDS011;18385;51.572;6.578;2022-08-19T13:12:47;10.38;;;7.28;;
31676;SDS011;18385;51.572;6.578;2022-08-19T13:15:16;12.88;;;7.20;;
31676;SDS011;18385;51.572;6.578;2022-08-19T13:17:45;12.38;;;7.03;;
31676;SDS011;18385;51.572;6.578;2022-08-19T13:20:16;11.68;;;6.70;;
31676;SDS011;18385;51.572;6.578;2022-08-19T13:22:44;8.80;;;6.20;;
31676;SDS011;18385;51.572;6.578;2022-08-19T13:25:11;8.82;;;6.88;;
31676;SDS011;18385;51.572;6.578;2022-08-19T13:27:37;10.38;;;6.18;;
31676;SDS011;18385;51.572;6.578;2022-08-19T13:30:04;11.88;;;6.97;;
31676;SDS011;18385;51.572;6.578;2022-08-19T13:32:50;9.73;;;7.35;;
31676;SDS011;18385;51.572;6.578;2022-08-19T13:35:34;12.48;;;7.03;;
31676;SDS011;18385;51.572;6.578;2022-08-19T13:38:00;8.05;;;5.85;;
31676;SDS011;18385;51.572;6.578;2022-08-19T13:40:29;10.07;;;6.25;;
31676;SDS011;18385;51.572;6.578;2022-08-19T13:42:58;8.30;;;5.85;;
31676;SDS011;18385;51.572;6.578;2022-08-19T13:45:24;8.02;;;5.50;;
31676;SDS011;18385;51.572;6.578;2022-08-19T13:47:54;8.63;;;4.95;;
31676;SDS011;18385;51.572;6.578;2022-08-19T13:50:22;7.47;;;4.07;;
31676;SDS011;18385;51.572;6.578;2022-08-19T13:52:52;7.15;;;4.68;;
31676;SDS011;18385;51.572;6.578;2022-08-19T13:55:18;7.40;;;4.18;;
31676;SDS011;18385;51.572;6.578;2022-08-19T13:57:44;8.98;;;4.75;;
31676;SDS011;18385;51.572;6.578;2022-08-19T14:00:15;7.70;;;4.47;;
31676;SDS011;18385;51.572;6.578;2022-08-19T14:02:43;9.88;;;5.10;;
31676;SDS011;18385;51.572;6.578;2022-08-19T14:05:11;9.07;;;4.85;;
31676;SDS011;18385;51.572;6.578;2022-08-19T14:07:38;9.00;;;5.03;;
31676;SDS011;18385;51.572;6.578;2022-08-19T14:10:06;9.52;;;4.75;;
31676;SDS011;18385;51.572;6.578;2022-08-19T14:12:34;9.55;;;5.47;;
31676;SDS011;18385;51.572;6.578;2022-08-19T14:15:00;7.40;;;5.15;;
31676;SDS011;18385;51.572;6.578;2022-08-19T14:17:27;11.02;;;6.03;;
31676;SDS011;18385;51.572;6.578;2022-08-19T14:20:03;8.77;;;5.13;;
31676;SDS011;18385;51.572;6.578;2022-08-19T14:22:34;7.38;;;5.18;;
31676;SDS011;18385;51.572;6.578;2022-08-19T14:25:01;7.90;;;4.90;;
31676;SDS011;18385;51.572;6.578;2022-08-19T14:27:27;10.40;;;5.70;;
31676;SDS011;18385;51.572;6.578;2022-08-19T14:29:53;10.35;;;6.13;;
31676;SDS011;18385;51.572;6.578;2022-08-19T14:32:20;11.95;;;6.28;;
31676;SDS011;18385;51.572;6.578;2022-08-19T14:34:46;13.00;;;6.55;;
31676;SDS011;18385;51.572;6.578;2022-08-19T14:37:12;10.25;;;7.57;;
31676;SDS011;18385;51.572;6.578;2022-08-19T14:39:39;12.57;;;7.47;;
31676;SDS011;18385;51.572;6.578;2022-08-19T14:42:07;11.85;;;6.07;;
31676;SDS011;18385;51.572;6.578;2022-08-19T14:44:33;9.73;;;6.10;;
31676;SDS011;18385;51.572;6.578;2022-08-19T14:46:59;12.73;;;7.53;;
31676;SDS011;18385;51.572;6.578;2022-08-19T14:49:25;9.65;;;6.45;;
31676;SDS011;18385;51.572;6.578;2022-08-19T14:51:51;14.25;;;6.82;;
31676;SDS011;18385;51.572;6.578;2022-08-19T14:54:16;8.25;;;5.38;;
31676;SDS011;18385;51.572;6.578;2022-08-19T14:56:42;7.55;;;5.35;;
31676;SDS011;18385;51.572;6.578;2022-08-19T14:59:08;9.57;;;5.55;;
31676;SDS011;18385;51.572;6.578;2022-08-19T15:01:34;12.25;;;6.47;;
31676;SDS011;18385;51.572;6.578;2022-08-19T15:03:59;11.30;;;7.25;;
31676;SDS011;18385;51.572;6.578;2022-08-19T15:06:25;8.63;;;6.22;;
31676;SDS011;18385;51.572;6.578;2022-08-19T15:08:52;9.85;;;6.18;;